Time;durP1;ratioP1;P1;durP2;ratioP2;P2;SDS_P1;SDS_P2;PMS_P1;PMS_P2;Temp;Humidity;BMP_temperature;BMP_pressure;BME280_temperature;BME280_humidity;BME280_pressure;Samples;Min_cycle;Max_cycle;Signal;HPM_P1;HPM_P2
2021/06/02 00:00:21;;;;;;;4.32;2.58;;;;;;;;;;5031001;27;35680;-78
2021/06/02 00:02:48;;;;;;;4.47;2.60;;;;;;;;;;5058146;28;39883;-82
2021/06/02 00:05:15;;;;;;;4.45;2.95;;;;;;;;;;5035135;28;38911;-80
2021/06/02 00:07:42;;;;;;;5.05;2.40;;;;;;;;;;5031302;28;37935;-78
2021/06/02 00:10:09;;;;;;;2.85;2.40;;;;;;;;;;5029713;28;37080;-78
2021/06/02 00:12:36;;;;;;;4.85;2.83;;;;;;;;;;5062658;28;37578;-78
2021/06/02 00:15:03;;;;;;;6.25;2.65;;;;;;;;;;5061679;28;37537;-78
2021/06/02 00:17:30;;;;;;;4.28;2.35;;;;;;;;;;5049749;28;48408;-79
2021/06/02 00:19:56;;;;;;;4.70;2.95;;;;;;;;;;5050701;28;37139;-80
2021/06/02 00:22:22;;;;;;;6.32;2.75;;;;;;;;;;5052339;28;39812;-79
2021/06/02 00:24:49;;;;;;;5.05;2.65;;;;;;;;;;5055814;28;38346;-80
2021/06/02 00:27:15;;;;;;;5.13;3.05;;;;;;;;;;5059146;28;38577;-80
2021/06/02 00:29:44;;;;;;;3.10;2.80;;;;;;;;;;5049330;28;36113;-82
2021/06/02 00:32:11;;;;;;;5.40;3.13;;;;;;;;;;5068985;27;40617;-79
2021/06/02 00:34:38;;;;;;;4.72;2.90;;;;;;;;;;5063378;28;38240;-79
2021/06/02 00:37:08;;;;;;;3.88;3.03;;;;;;;;;;5069875;27;34966;-78
2021/06/02 00:39:34;;;;;;;5.38;2.80;;;;;;;;;;5052772;28;38053;-81
2021/06/02 00:42:01;;;;;;;7.15;3.17;;;;;;;;;;5056180;28;39516;-80
2021/06/02 00:44:28;;;;;;;6.72;3.13;;;;;;;;;;5036187;28;47322;-79
2021/06/02 00:46:57;;;;;;;5.95;3.28;;;;;;;;;;5040253;28;37802;-79
2021/06/02 00:49:24;;;;;;;5.90;3.15;;;;;;;;;;5037101;28;36748;-80
2021/06/02 00:52:07;;;;;;;5.00;3.03;;;;;;;;;;5034220;28;40475;-80
2021/06/02 00:54:35;;;;;;;8.63;3.25;;;;;;;;;;5063842;28;47328;-80
2021/06/02 00:57:05;;;;;;;6.63;3.42;;;;;;;;;;5050364;28;38012;-77
2021/06/02 00:59:38;;;;;;;4.82;3.25;;;;;;;;;;5054467;27;38060;-79
2021/06/02 01:02:06;;;;;;;8.40;3.95;;;;;;;;;;5043161;28;40454;-79
2021/06/02 01:04:32;;;;;;;8.75;3.80;;;;;;;;;;5031931;28;38618;-78
2021/06/02 01:06:59;;;;;;;5.68;3.67;;;;;;;;;;5042281;27;38988;-79
2021/06/02 01:09:26;;;;;;;4.47;3.20;;;;;;;;;;5027381;27;38295;-79
2021/06/02 01:11:53;;;;;;;9.00;3.97;;;;;;;;;;5034390;28;38723;-79
2021/06/02 01:14:20;;;;;;;4.40;3.15;;;;;;;;;;5050344;28;39945;-79
2021/06/02 01:16:47;;;;;;;6.05;3.60;;;;;;;;;;5050645;27;38970;-79
2021/06/02 01:19:14;;;;;;;5.25;3.47;;;;;;;;;;5056792;27;38721;-78
2021/06/02 01:21:42;;;;;;;4.00;3.33;;;;;;;;;;5049524;28;39984;-80
2021/06/02 01:24:08;;;;;;;5.03;3.28;;;;;;;;;;5045483;28;40658;-79
2021/06/02 01:26:36;;;;;;;3.90;3.28;;;;;;;;;;5071699;28;37852;-80
2021/06/02 01:29:03;;;;;;;5.30;3.17;;;;;;;;;;5054661;27;36573;-78
2021/06/02 01:31:41;;;;;;;4.82;3.35;;;;;;;;;;5056956;28;39904;-79
2021/06/02 01:34:17;;;;;;;8.23;3.35;;;;;;;;;;5054002;28;37576;-79
2021/06/02 01:37:00;;;;;;;4.03;3.60;;;;;;;;;;5052449;28;37043;-79
2021/06/02 01:39:26;;;;;;;6.68;3.58;;;;;;;;;;5053875;27;36192;-79
2021/06/02 01:42:11;;;;;;;6.22;3.70;;;;;;;;;;5055880;28;38059;-80
2021/06/02 01:45:06;;;;;;;5.85;3.60;;;;;;;;;;5056981;27;49367;-78
2021/06/02 01:47:32;;;;;;;7.43;3.15;;;;;;;;;;5058881;27;48809;-79
2021/06/02 01:50:18;;;;;;;5.20;3.50;;;;;;;;;;5047988;28;35963;-78
2021/06/02 01:52:47;;;;;;;5.82;3.75;;;;;;;;;;5036533;28;47299;-77
2021/06/02 01:55:26;;;;;;;8.13;4.03;;;;;;;;;;5050111;27;37434;-78
2021/06/02 01:57:55;;;;;;;6.20;4.88;;;;;;;;;;5066684;27;39550;-78
2021/06/02 02:00:21;;;;;;;5.00;3.78;;;;;;;;;;5045266;27;36265;-78
2021/06/02 02:03:01;;;;;;;4.22;3.80;;;;;;;;;;5056231;27;38780;-79
2021/06/02 02:05:42;;;;;;;6.82;4.03;;;;;;;;;;5025784;28;47262;-78
2021/06/02 02:08:14;;;;;;;7.70;4.05;;;;;;;;;;5071335;28;39810;-78
2021/06/02 02:10:52;;;;;;;5.47;4.25;;;;;;;;;;5043104;28;36682;-78
2021/06/02 02:13:18;;;;;;;5.72;3.50;;;;;;;;;;5035076;28;39864;-79
2021/06/02 02:16:03;;;;;;;5.90;4.18;;;;;;;;;;5023800;28;38226;-78
2021/06/02 02:18:48;;;;;;;6.88;4.13;;;;;;;;;;5034879;28;48396;-80
2021/06/02 02:21:35;;;;;;;5.50;4.07;;;;;;;;;;5044851;27;37765;-79
2021/06/02 02:24:10;;;;;;;4.97;4.13;;;;;;;;;;5048129;28;40153;-79
2021/06/02 02:26:55;;;;;;;9.30;4.95;;;;;;;;;;5038673;28;47085;-79
2021/06/02 02:29:22;;;;;;;5.63;4.57;;;;;;;;;;5041759;27;38036;-78
2021/06/02 02:32:07;;;;;;;6.95;4.30;;;;;;;;;;5047773;27;37119;-80
2021/06/02 02:34:53;;;;;;;7.35;4.40;;;;;;;;;;5061412;27;48771;-79
2021/06/02 02:37:23;;;;;;;12.27;5.10;;;;;;;;;;5054988;28;39525;-78
2021/06/02 02:39:58;;;;;;;8.15;5.05;;;;;;;;;;5068168;28;38868;-79
2021/06/02 02:42:44;;;;;;;5.50;4.55;;;;;;;;;;5061986;28;38501;-80
2021/06/02 02:45:29;;;;;;;6.05;5.20;;;;;;;;;;5062977;27;39045;-78
2021/06/02 02:47:59;;;;;;;6.55;5.40;;;;;;;;;;5055813;28;39215;-78
2021/06/02 02:50:32;;;;;;;8.05;5.45;;;;;;;;;;5051561;27;39217;-79
2021/06/02 02:53:07;;;;;;;7.68;5.53;;;;;;;;;;5053246;28;37389;-79
2021/06/02 02:55:35;;;;;;;8.25;5.95;;;;;;;;;;5048865;28;47246;-79
2021/06/02 02:58:19;;;;;;;9.70;6.43;;;;;;;;;;5064073;28;37446;-79
2021/06/02 03:00:48;;;;;;;7.53;6.00;;;;;;;;;;5035795;28;46895;-80
2021/06/02 03:03:14;;;;;;;9.95;6.00;;;;;;;;;;5032647;28;37144;-78
2021/06/02 03:05:52;;;;;;;8.25;6.40;;;;;;;;;;5030333;28;38931;-78
2021/06/02 03:08:22;;;;;;;9.55;6.00;;;;;;;;;;5045799;28;38769;-79
2021/06/02 03:10:54;;;;;;;9.57;6.40;;;;;;;;;;5034743;28;39106;-79
2021/06/02 03:13:37;;;;;;;10.32;7.40;;;;;;;;;;5062288;28;38199;-79
2021/06/02 03:16:03;;;;;;;;;;;;;;;;;;5061724;28;39210;-78
2021/06/02 03:18:39;;;;;;;10.40;6.88;;;;;;;;;;5032105;28;38938;-78
2021/06/02 03:21:12;;;;;;;9.63;6.78;;;;;;;;;;5031182;28;38509;-79
2021/06/02 03:23:47;;;;;;;10.73;7.10;;;;;;;;;;5066411;28;37706;-78
2021/06/02 03:26:17;;;;;;;7.75;6.95;;;;;;;;;;5037211;27;38575;-78
2021/06/02 03:28:53;;;;;;;10.82;7.72;;;;;;;;;;5029510;28;38593;-80
2021/06/02 03:31:26;;;;;;;11.52;8.00;;;;;;;;;;5059143;28;38643;-80
2021/06/02 03:33:59;;;;;;;11.50;7.88;;;;;;;;;;5060889;28;35786;-77
2021/06/02 03:36:37;;;;;;;10.93;7.88;;;;;;;;;;5066797;28;40721;-82
2021/06/02 03:39:06;;;;;;;12.18;7.88;;;;;;;;;;5030973;27;39464;-78
2021/06/02 03:41:48;;;;;;;10.93;8.15;;;;;;;;;;5030134;28;38109;-78
2021/06/02 03:44:20;;;;;;;12.47;9.10;;;;;;;;;;5025500;28;36368;-79
2021/06/02 03:46:53;;;;;;;9.98;8.50;;;;;;;;;;5056868;28;39565;-79
2021/06/02 03:49:45;;;;;;;13.00;8.38;;;;;;;;;;5032665;27;38808;-80
2021/06/02 03:52:21;;;;;;;10.70;8.82;;;;;;;;;;5065506;28;38783;-78
2021/06/02 03:54:52;;;;;;;11.20;8.55;;;;;;;;;;5065249;28;36374;-78
2021/06/02 03:57:30;;;;;;;13.85;9.65;;;;;;;;;;5061702;28;38394;-78
2021/06/02 03:59:57;;;;;;;13.27;9.57;;;;;;;;;;5063290;28;36981;-79
2021/06/02 04:02:42;;;;;;;9.50;8.38;;;;;;;;;;5038529;28;38501;-79
2021/06/02 04:05:27;;;;;;;11.77;8.60;;;;;;;;;;5030386;28;36988;-79
2021/06/02 04:07:54;;;;;;;12.27;9.48;;;;;;;;;;5039997;28;38843;-78
2021/06/02 04:10:39;;;;;;;12.25;9.00;;;;;;;;;;5035126;28;39379;-80
2021/06/02 04:13:13;;;;;;;12.10;8.88;;;;;;;;;;5062013;28;39080;-79
2021/06/02 04:15:42;;;;;;;16.08;10.98;;;;;;;;;;5025004;28;37063;-77
2021/06/02 04:18:08;;;;;;;11.73;9.18;;;;;;;;;;5046242;28;40206;-79
2021/06/02 04:20:36;;;;;;;14.35;10.25;;;;;;;;;;5064433;28;37624;-78
2021/06/02 04:23:03;;;;;;;11.80;9.95;;;;;;;;;;5030095;28;39086;-78
2021/06/02 04:25:30;;;;;;;12.48;9.43;;;;;;;;;;5026656;27;37662;-78
2021/06/02 04:27:57;;;;;;;12.02;9.77;;;;;;;;;;5035747;28;39868;-79
2021/06/02 04:30:24;;;;;;;12.00;9.50;;;;;;;;;;5029905;28;39437;-78
2021/06/02 04:32:51;;;;;;;14.35;9.98;;;;;;;;;;5059165;28;36847;-79
2021/06/02 04:35:19;;;;;;;13.55;9.98;;;;;;;;;;5030509;28;37297;-80
2021/06/02 04:37:46;;;;;;;13.07;10.20;;;;;;;;;;5042532;28;39826;-79
2021/06/02 04:40:12;;;;;;;13.73;10.93;;;;;;;;;;5031289;28;38582;-78
2021/06/02 04:42:40;;;;;;;11.00;9.15;;;;;;;;;;5030391;28;36291;-77
2021/06/02 04:45:08;;;;;;;13.35;10.07;;;;;;;;;;5025354;27;37648;-79
2021/06/02 04:47:35;;;;;;;13.75;9.70;;;;;;;;;;5031959;28;39386;-78
2021/06/02 04:50:02;;;;;;;16.65;10.35;;;;;;;;;;5025271;28;40376;-80
2021/06/02 04:52:38;;;;;;;12.60;9.68;;;;;;;;;;5033876;28;39118;-78
2021/06/02 04:55:07;;;;;;;13.18;10.55;;;;;;;;;;5067430;28;37436;-79
2021/06/02 04:57:52;;;;;;;12.40;10.27;;;;;;;;;;5034727;28;47276;-79
2021/06/02 05:00:37;;;;;;;14.98;10.05;;;;;;;;;;5035899;28;38322;-79
2021/06/02 05:03:09;;;;;;;14.32;9.68;;;;;;;;;;5039908;28;39361;-78
2021/06/02 05:05:42;;;;;;;13.20;10.30;;;;;;;;;;5068635;28;38811;-79
2021/06/02 05:08:14;;;;;;;13.63;9.75;;;;;;;;;;5035586;28;39648;-78
2021/06/02 05:10:41;;;;;;;;;;;;;;;;;;5065655;28;38775;-78
2021/06/02 05:13:26;;;;;;;15.43;9.93;;;;;;;;;;5049276;28;39341;-79
2021/06/02 05:16:12;;;;;;;10.20;8.88;;;;;;;;;;5046423;28;37127;-78
2021/06/02 05:18:54;;;;;;;12.80;9.55;;;;;;;;;;5054025;28;47490;-80
2021/06/02 05:24:01;;;;;;;11.20;8.82;;;;;;;;;;5055346;28;38850;-81
2021/06/02 05:26:43;;;;;;;14.00;8.50;;;;;;;;;;5052516;28;47318;-79
2021/06/02 05:29:28;;;;;;;10.55;8.35;;;;;;;;;;5075159;27;37911;-78
2021/06/02 05:31:55;;;;;;;13.30;9.18;;;;;;;;;;5083994;27;39009;-80
2021/06/02 05:34:21;;;;;;;11.52;8.95;;;;;;;;;;5060847;28;39225;-78
2021/06/02 05:37:02;;;;;;;11.52;8.45;;;;;;;;;;5079076;28;37868;-78
2021/06/02 05:39:47;;;;;;;13.88;9.57;;;;;;;;;;5058359;28;47487;-78
2021/06/02 05:42:18;;;;;;;13.50;8.48;;;;;;;;;;5038169;28;38976;-78
2021/06/02 05:44:53;;;;;;;13.75;9.05;;;;;;;;;;5062810;28;38821;-78
2021/06/02 05:47:31;;;;;;;13.82;9.32;;;;;;;;;;5041112;28;37691;-79
2021/06/02 05:50:16;;;;;;;15.57;9.07;;;;;;;;;;5063390;28;39950;-79
2021/06/02 05:52:43;;;;;;;12.23;8.85;;;;;;;;;;5064392;28;48548;-79
2021/06/02 05:55:11;;;;;;;10.82;9.00;;;;;;;;;;5065504;28;38281;-78
2021/06/02 05:57:58;;;;;;;12.65;8.20;;;;;;;;;;5034556;28;37554;-78
2021/06/02 06:00:43;;;;;;;14.18;8.77;;;;;;;;;;5038002;28;39390;-79
2021/06/02 06:03:24;;;;;;;10.38;8.77;;;;;;;;;;5057463;28;39575;-78
2021/06/02 06:06:03;;;;;;;10.45;8.00;;;;;;;;;;5034759;28;38375;-79
2021/06/02 06:08:50;;;;;;;10.43;9.13;;;;;;;;;;5042808;28;47666;-78
2021/06/02 06:11:35;;;;;;;14.43;9.00;;;;;;;;;;5066085;27;40734;-78
2021/06/02 06:14:14;;;;;;;14.20;9.10;;;;;;;;;;5048619;28;39374;-79
2021/06/02 06:16:43;;;;;;;18.75;10.25;;;;;;;;;;5060350;28;47892;-79
2021/06/02 06:19:28;;;;;;;14.77;9.45;;;;;;;;;;5049105;28;37765;-78
2021/06/02 06:22:27;;;;;;;13.05;8.88;;;;;;;;;;5057366;28;38813;-79
2021/06/02 06:25:02;;;;;;;13.20;9.00;;;;;;;;;;5022631;28;47283;-79
2021/06/02 06:27:36;;;;;;;15.25;9.27;;;;;;;;;;5050474;27;48440;-79
2021/06/02 06:30:05;;;;;;;14.15;9.52;;;;;;;;;;5053338;27;37974;-78
2021/06/02 06:32:33;;;;;;;12.85;8.90;;;;;;;;;;5049706;28;38735;-78
2021/06/02 06:35:02;;;;;;;12.15;9.02;;;;;;;;;;5057334;28;39540;-78
2021/06/02 06:37:32;;;;;;;12.98;9.82;;;;;;;;;;5049709;27;49263;-79
2021/06/02 06:40:04;;;;;;;11.65;9.68;;;;;;;;;;5056668;28;37586;-78
2021/06/02 06:42:35;;;;;;;10.70;9.20;;;;;;;;;;5056286;27;49252;-79
2021/06/02 06:45:06;;;;;;;13.82;10.00;;;;;;;;;;5053742;27;37481;-80
2021/06/02 06:47:34;;;;;;;12.10;8.98;;;;;;;;;;5053148;28;47160;-78
2021/06/02 06:50:01;;;;;;;12.45;8.98;;;;;;;;;;5055993;28;36097;-79
2021/06/02 06:52:28;;;;;;;12.15;9.02;;;;;;;;;;5056488;28;39268;-77
2021/06/02 06:54:58;;;;;;;11.73;9.55;;;;;;;;;;5053633;28;38766;-77
2021/06/02 06:57:26;;;;;;;9.95;8.80;;;;;;;;;;5057431;27;38274;-78
2021/06/02 06:59:52;;;;;;;12.40;9.45;;;;;;;;;;5055520;28;39658;-76
2021/06/02 07:02:19;;;;;;;12.88;9.20;;;;;;;;;;5058271;27;38852;-79
2021/06/02 07:04:45;;;;;;;12.82;8.43;;;;;;;;;;5061451;28;38249;-78
2021/06/02 07:07:13;;;;;;;10.68;9.23;;;;;;;;;;5052730;28;38432;-79
2021/06/02 07:09:40;;;;;;;12.43;8.55;;;;;;;;;;5052936;28;35780;-77
2021/06/02 07:12:07;;;;;;;12.57;9.57;;;;;;;;;;5058286;28;40185;-79
2021/06/02 07:14:35;;;;;;;12.88;9.35;;;;;;;;;;5057947;28;39662;-79
2021/06/02 07:17:05;;;;;;;12.23;8.80;;;;;;;;;;5057915;28;38673;-78
2021/06/02 07:19:33;;;;;;;11.25;8.80;;;;;;;;;;5058083;28;47390;-79
2021/06/02 07:22:01;;;;;;;11.73;8.30;;;;;;;;;;5057167;28;40127;-79
2021/06/02 07:24:28;;;;;;;14.05;9.07;;;;;;;;;;5051067;28;47376;-79
2021/06/02 07:26:54;;;;;;;11.20;8.70;;;;;;;;;;5060155;28;39135;-78
2021/06/02 07:29:21;;;;;;;11.18;9.10;;;;;;;;;;5056121;27;35480;-78
2021/06/02 07:31:47;;;;;;;11.68;9.10;;;;;;;;;;5072116;27;39116;-77
2021/06/02 07:34:14;;;;;;;11.93;8.80;;;;;;;;;;5038018;27;38162;-76
2021/06/02 07:36:40;;;;;;;11.90;9.88;;;;;;;;;;5031293;28;39037;-77
2021/06/02 07:39:06;;;;;;;11.98;9.05;;;;;;;;;;5065755;27;37815;-78
2021/06/02 07:41:33;;;;;;;11.32;8.18;;;;;;;;;;5056143;28;40836;-78
2021/06/02 07:43:59;;;;;;;9.90;8.43;;;;;;;;;;5064295;28;38627;-77
2021/06/02 07:46:26;;;;;;;13.00;8.32;;;;;;;;;;5038372;27;37833;-76
2021/06/02 07:48:52;;;;;;;10.82;9.07;;;;;;;;;;5041991;28;37048;-75
2021/06/02 07:51:19;;;;;;;10.98;8.48;;;;;;;;;;5038975;27;38854;-76
2021/06/02 07:53:45;;;;;;;11.07;8.95;;;;;;;;;;5080690;28;38673;-76
2021/06/02 07:56:11;;;;;;;13.65;8.25;;;;;;;;;;5063113;27;37707;-78
2021/06/02 07:58:39;;;;;;;9.60;8.02;;;;;;;;;;5061552;28;37599;-76
2021/06/02 08:01:05;;;;;;;13.65;8.18;;;;;;;;;;5057881;27;38873;-76
2021/06/02 08:03:32;;;;;;;10.90;8.38;;;;;;;;;;5056770;27;38363;-78
2021/06/02 08:05:58;;;;;;;10.27;8.65;;;;;;;;;;5063617;27;38452;-76
2021/06/02 08:08:24;;;;;;;12.80;8.90;;;;;;;;;;5062581;28;37593;-76
2021/06/02 08:10:51;;;;;;;10.88;8.30;;;;;;;;;;5074985;27;40659;-78
2021/06/02 08:13:17;;;;;;;11.68;8.68;;;;;;;;;;5057852;27;39044;-77
2021/06/02 08:15:44;;;;;;;9.88;8.20;;;;;;;;;;5052231;28;38717;-78
2021/06/02 08:18:10;;;;;;;10.82;8.45;;;;;;;;;;5053226;28;37741;-78
2021/06/02 08:20:37;;;;;;;9.63;7.75;;;;;;;;;;5061137;28;39698;-78
2021/06/02 08:23:03;;;;;;;15.13;8.98;;;;;;;;;;5055412;28;39104;-79
2021/06/02 08:25:30;;;;;;;12.75;8.32;;;;;;;;;;5067500;27;39136;-77
2021/06/02 08:27:56;;;;;;;11.73;8.20;;;;;;;;;;5056608;28;37880;-77
2021/06/02 08:30:23;;;;;;;9.63;7.57;;;;;;;;;;5053238;27;39408;-78
2021/06/02 08:32:49;;;;;;;11.07;7.68;;;;;;;;;;5057978;27;40145;-78
2021/06/02 08:35:16;;;;;;;7.43;5.90;;;;;;;;;;5042674;28;39353;-79
2021/06/02 08:37:42;;;;;;;10.82;8.05;;;;;;;;;;5043229;28;37732;-79
2021/06/02 08:40:10;;;;;;;13.00;7.93;;;;;;;;;;5065051;27;39925;-79
2021/06/02 08:42:39;;;;;;;10.38;7.10;;;;;;;;;;5036882;28;38979;-79
2021/06/02 08:45:06;;;;;;;9.40;6.75;;;;;;;;;;5035705;28;38373;-77
2021/06/02 08:47:32;;;;;;;12.05;6.70;;;;;;;;;;5066261;28;36962;-80
2021/06/02 08:49:59;;;;;;;8.65;6.00;;;;;;;;;;5038696;28;40280;-79
2021/06/02 08:52:25;;;;;;;8.30;5.18;;;;;;;;;;5031959;28;38141;-79
2021/06/02 08:54:53;;;;;;;10.73;6.05;;;;;;;;;;5037578;28;38271;-78
2021/06/02 08:57:20;;;;;;;9.07;6.22;;;;;;;;;;5034701;28;35306;-78
2021/06/02 08:59:46;;;;;;;8.10;6.50;;;;;;;;;;5037251;28;38544;-79
2021/06/02 09:02:12;;;;;;;7.68;6.15;;;;;;;;;;5034365;28;39393;-78
2021/06/02 09:04:39;;;;;;;8.00;5.60;;;;;;;;;;5036776;28;37125;-78
2021/06/02 09:07:06;;;;;;;9.43;5.57;;;;;;;;;;5037088;28;36745;-79
2021/06/02 09:09:33;;;;;;;5.95;5.35;;;;;;;;;;5033587;28;39104;-78
2021/06/02 09:12:08;;;;;;;6.90;5.88;;;;;;;;;;5032661;27;39308;-80
2021/06/02 09:14:37;;;;;;;6.78;4.95;;;;;;;;;;5034448;28;48797;-79
2021/06/02 09:17:05;;;;;;;9.82;5.65;;;;;;;;;;5053385;28;37482;-78
2021/06/02 09:19:32;;;;;;;7.60;4.90;;;;;;;;;;5032669;28;38034;-80
2021/06/02 09:22:00;;;;;;;10.48;4.85;;;;;;;;;;5032449;28;38491;-80
2021/06/02 09:24:45;;;;;;;8.07;4.57;;;;;;;;;;5037146;28;39017;-80
2021/06/02 09:27:11;;;;;;;7.03;4.30;;;;;;;;;;5030776;28;37246;-78
2021/06/02 09:29:51;;;;;;;7.03;4.78;;;;;;;;;;5029432;28;38847;-78
2021/06/02 09:32:18;;;;;;;7.22;4.22;;;;;;;;;;5053555;28;38570;-79
2021/06/02 09:34:45;;;;;;;7.93;4.82;;;;;;;;;;5029440;28;39084;-79
2021/06/02 09:37:11;;;;;;;5.97;3.85;;;;;;;;;;5041654;28;36955;-80
2021/06/02 09:39:39;;;;;;;6.50;3.80;;;;;;;;;;5034144;28;38111;-77
2021/06/02 09:42:16;;;;;;;7.20;3.83;;;;;;;;;;5056493;28;38901;-77
2021/06/02 09:44:43;;;;;;;4.80;3.42;;;;;;;;;;5039171;28;39231;-80
2021/06/02 09:47:11;;;;;;;9.95;3.75;;;;;;;;;;5060415;28;37310;-80
2021/06/02 09:49:51;;;;;;;5.35;3.70;;;;;;;;;;5040727;28;38549;-79
2021/06/02 09:52:18;;;;;;;6.78;3.80;;;;;;;;;;5058157;28;39483;-80
2021/06/02 09:54:44;;;;;;;7.28;3.92;;;;;;;;;;5037607;28;38284;-80
2021/06/02 09:57:12;;;;;;;4.93;2.88;;;;;;;;;;5036993;28;35802;-79
2021/06/02 09:59:53;;;;;;;5.45;3.22;;;;;;;;;;5063140;28;39292;-77
2021/06/02 10:02:19;;;;;;;5.15;2.80;;;;;;;;;;5043037;28;38211;-79
2021/06/02 10:04:45;;;;;;;3.33;2.47;;;;;;;;;;5068894;28;37135;-79
2021/06/02 10:07:18;;;;;;;10.05;3.50;;;;;;;;;;5034154;28;37276;-79
2021/06/02 10:09:45;;;;;;;4.68;2.80;;;;;;;;;;5037353;28;39991;-81
2021/06/02 10:12:12;;;;;;;4.15;2.90;;;;;;;;;;5072084;27;40088;-79
2021/06/02 10:14:52;;;;;;;6.90;2.58;;;;;;;;;;5039044;28;39023;-80
2021/06/02 10:17:34;;;;;;;5.82;2.65;;;;;;;;;;5051003;28;38198;-81
2021/06/02 10:20:12;;;;;;;5.22;2.90;;;;;;;;;;5054276;28;40848;-80
2021/06/02 10:22:39;;;;;;;3.92;2.95;;;;;;;;;;5078359;27;47533;-80
2021/06/02 10:25:07;;;;;;;3.28;2.22;;;;;;;;;;5060665;28;39133;-81
2021/06/02 10:27:33;;;;;;;4.97;2.40;;;;;;;;;;5055877;28;38347;-80
2021/06/02 10:30:00;;;;;;;4.38;2.03;;;;;;;;;;5068700;27;38915;-81
2021/06/02 10:32:27;;;;;;;2.55;1.88;;;;;;;;;;5051717;28;38419;-79
2021/06/02 10:34:54;;;;;;;5.55;2.08;;;;;;;;;;5058027;28;39009;-79
2021/06/02 10:37:22;;;;;;;3.33;2.13;;;;;;;;;;5055422;28;36837;-79
2021/06/02 10:39:54;;;;;;;3.70;1.67;;;;;;;;;;5056669;28;38780;-79
2021/06/02 10:42:37;;;;;;;2.95;1.75;;;;;;;;;;5058509;28;38478;-80
2021/06/02 10:45:08;;;;;;;7.63;2.13;;;;;;;;;;5066867;27;36996;-81
2021/06/02 10:47:34;;;;;;;3.88;1.70;;;;;;;;;;5052727;28;47319;-79
2021/06/02 10:50:01;;;;;;;2.20;2.00;;;;;;;;;;5065732;28;38448;-80
2021/06/02 10:52:41;;;;;;;3.28;1.58;;;;;;;;;;5064699;28;46961;-80
2021/06/02 10:55:26;;;;;;;6.45;2.40;;;;;;;;;;5056173;27;37112;-81
2021/06/02 10:58:11;;;;;;;5.20;2.20;;;;;;;;;;5063436;27;36466;-81
2021/06/02 11:00:38;;;;;;;6.65;2.10;;;;;;;;;;5048242;27;48827;-79
2021/06/02 11:03:19;;;;;;;2.10;1.83;;;;;;;;;;5060613;28;39009;-79
2021/06/02 11:05:46;;;;;;;3.38;2.15;;;;;;;;;;5052527;28;39107;-79
2021/06/02 11:08:12;;;;;;;3.80;2.33;;;;;;;;;;5037725;27;37110;-80
2021/06/02 11:10:38;;;;;;;3.08;2.75;;;;;;;;;;5037976;28;39847;-80
2021/06/02 11:13:06;;;;;;;5.22;2.58;;;;;;;;;;5042559;27;40289;-78
2021/06/02 11:15:36;;;;;;;2.55;2.00;;;;;;;;;;5037320;27;37759;-79
2021/06/02 11:18:18;;;;;;;6.43;2.70;;;;;;;;;;5045036;28;37808;-80
2021/06/02 11:20:44;;;;;;;5.20;3.40;;;;;;;;;;5037884;28;40881;-79
2021/06/02 11:23:12;;;;;;;3.78;2.83;;;;;;;;;;5040422;27;38404;-79
2021/06/02 11:25:42;;;;;;;5.00;2.80;;;;;;;;;;5040216;27;38131;-80
2021/06/02 11:28:10;;;;;;;6.47;3.33;;;;;;;;;;5042085;28;36767;-80
2021/06/02 11:30:36;;;;;;;7.35;3.35;;;;;;;;;;5037803;28;39224;-78
2021/06/02 11:33:07;;;;;;;4.53;3.25;;;;;;;;;;5039162;28;39312;-78
2021/06/02 11:35:52;;;;;;;6.63;2.85;;;;;;;;;;5038717;28;37998;-78
2021/06/02 11:38:19;;;;;;;4.25;2.95;;;;;;;;;;5065926;28;37332;-79
2021/06/02 11:40:45;;;;;;;4.22;2.70;;;;;;;;;;5041032;28;38994;-81
2021/06/02 11:43:11;;;;;;;5.50;2.25;;;;;;;;;;5039874;28;39305;-79
2021/06/02 11:45:42;;;;;;;3.85;2.22;;;;;;;;;;5059928;27;36974;-79
2021/06/02 11:48:11;;;;;;;6.45;2.38;;;;;;;;;;5043087;28;38091;-80
2021/06/02 11:50:37;;;;;;;4.85;2.10;;;;;;;;;;5043381;27;38199;-78
2021/06/02 11:53:04;;;;;;;2.72;2.00;;;;;;;;;;5062604;28;37712;-79
2021/06/02 11:55:31;;;;;;;6.85;2.55;;;;;;;;;;5036188;27;38178;-80
2021/06/02 11:57:58;;;;;;;6.38;2.05;;;;;;;;;;5045774;28;38031;-79
2021/06/02 12:00:28;;;;;;;4.47;2.55;;;;;;;;;;5040724;28;39256;-80
2021/06/02 12:02:56;;;;;;;4.40;2.45;;;;;;;;;;5071858;28;38045;-80
2021/06/02 12:05:30;;;;;;;6.72;2.60;;;;;;;;;;5064711;28;39588;-78
2021/06/02 12:08:04;;;;;;;6.78;1.80;;;;;;;;;;5042150;28;36850;-78
2021/06/02 12:10:34;;;;;;;2.60;1.83;;;;;;;;;;5060951;28;46925;-81
2021/06/02 12:13:01;;;;;;;5.15;1.98;;;;;;;;;;5064927;27;39381;-80
2021/06/02 12:15:28;;;;;;;3.30;2.50;;;;;;;;;;5051155;27;48415;-78
2021/06/02 12:17:54;;;;;;;3.60;2.45;;;;;;;;;;5053704;28;37691;-77
2021/06/02 12:20:25;;;;;;;4.63;2.83;;;;;;;;;;5071380;28;39550;-77
2021/06/02 12:22:52;;;;;;;2.20;2.00;;;;;;;;;;5077971;28;39268;-77
2021/06/02 12:25:24;;;;;;;7.55;2.38;;;;;;;;;;5038248;28;37304;-78
2021/06/02 12:28:00;;;;;;;6.07;2.70;;;;;;;;;;5046198;28;38011;-78
2021/06/02 12:30:31;;;;;;;3.13;2.20;;;;;;;;;;5032708;28;40861;-77
2021/06/02 12:32:59;;;;;;;6.35;2.40;;;;;;;;;;5061796;28;40111;-77
2021/06/02 12:35:28;;;;;;;4.15;2.10;;;;;;;;;;5034141;28;38427;-78
2021/06/02 12:37:58;;;;;;;5.15;1.98;;;;;;;;;;5086433;28;37195;-78
2021/06/02 12:40:24;;;;;;;3.38;2.00;;;;;;;;;;5061482;27;40885;-79
2021/06/02 12:42:51;;;;;;;4.00;2.28;;;;;;;;;;5072048;27;38675;-79
2021/06/02 12:45:24;;;;;;;3.38;2.17;;;;;;;;;;5078271;27;39731;-79
2021/06/02 12:47:50;;;;;;;4.65;2.28;;;;;;;;;;5065453;27;36640;-80
2021/06/02 12:50:36;;;;;;;3.20;1.98;;;;;;;;;;5046668;28;39692;-80
2021/06/02 12:53:04;;;;;;;3.28;2.05;;;;;;;;;;5058891;28;37569;-77
2021/06/02 12:55:32;;;;;;;3.97;2.10;;;;;;;;;;5079009;28;37771;-79
2021/06/02 12:58:18;;;;;;;4.10;2.45;;;;;;;;;;5079340;28;37558;-79
2021/06/02 13:00:45;;;;;;;3.83;2.85;;;;;;;;;;5046350;28;48804;-78
2021/06/02 13:03:20;;;;;;;6.78;2.30;;;;;;;;;;5073072;27;40018;-80
2021/06/02 13:05:47;;;;;;;4.03;3.10;;;;;;;;;;5047090;28;38097;-78
2021/06/02 13:08:14;;;;;;;6.22;2.55;;;;;;;;;;5045942;28;37314;-79
2021/06/02 13:10:41;;;;;;;5.57;2.95;;;;;;;;;;5056778;27;39843;-79
2021/06/02 13:13:09;;;;;;;3.90;2.55;;;;;;;;;;5059234;27;38976;-80
2021/06/02 13:15:37;;;;;;;3.88;2.33;;;;;;;;;;5048855;28;39613;-78
2021/06/02 13:18:04;;;;;;;4.15;2.00;;;;;;;;;;5059817;27;36814;-80
2021/06/02 13:20:38;;;;;;;6.00;2.55;;;;;;;;;;5080708;28;40726;-79
2021/06/02 13:23:08;;;;;;;2.92;2.30;;;;;;;;;;5052075;27;38685;-78
2021/06/02 13:25:35;;;;;;;5.00;2.72;;;;;;;;;;5072484;27;36613;-78
2021/06/02 13:28:02;;;;;;;4.18;2.28;;;;;;;;;;5061704;28;36926;-79
2021/06/02 13:30:45;;;;;;;2.47;2.22;;;;;;;;;;5060910;27;48960;-79
2021/06/02 13:33:12;;;;;;;5.93;2.30;;;;;;;;;;5057817;28;40054;-79
2021/06/02 13:35:39;;;;;;;5.65;2.30;;;;;;;;;;5063391;27;38426;-79
2021/06/02 13:38:06;;;;;;;4.68;2.20;;;;;;;;;;5055690;27;37102;-77
2021/06/02 13:40:33;;;;;;;5.43;2.50;;;;;;;;;;5060705;28;40325;-80
2021/06/02 13:43:02;;;;;;;3.15;1.98;;;;;;;;;;5057673;27;38744;-79
2021/06/02 13:45:38;;;;;;;3.70;1.98;;;;;;;;;;5055192;27;47329;-79
2021/06/02 13:48:23;;;;;;;4.30;2.13;;;;;;;;;;5043897;28;36809;-77
2021/06/02 13:50:50;;;;;;;3.22;2.10;;;;;;;;;;5037881;28;38685;-79
2021/06/02 13:53:16;;;;;;;4.78;2.20;;;;;;;;;;5041221;28;39240;-78
2021/06/02 13:55:42;;;;;;;2.22;2.00;;;;;;;;;;5063021;28;37195;-79
2021/06/02 13:58:12;;;;;;;3.97;2.30;;;;;;;;;;5038427;28;37529;-79
2021/06/02 14:00:40;;;;;;;3.17;1.80;;;;;;;;;;5036408;28;39326;-78
2021/06/02 14:03:07;;;;;;;3.17;1.80;;;;;;;;;;5064611;28;37361;-78
2021/06/02 14:05:33;;;;;;;3.67;1.77;;;;;;;;;;5044167;28;38337;-79
2021/06/02 14:07:59;;;;;;;4.20;1.30;;;;;;;;;;5040354;28;35875;-80
2021/06/02 14:10:26;;;;;;;4.68;1.58;;;;;;;;;;5070381;27;37864;-78
2021/06/02 14:12:55;;;;;;;4.00;1.80;;;;;;;;;;5040475;28;37839;-79
2021/06/02 14:15:21;;;;;;;3.30;1.88;;;;;;;;;;5033997;28;38636;-77
2021/06/02 14:17:48;;;;;;;4.03;2.10;;;;;;;;;;5039260;28;36663;-79
2021/06/02 14:20:14;;;;;;;2.80;1.73;;;;;;;;;;5062393;28;38759;-77
2021/06/02 14:22:40;;;;;;;4.10;1.30;;;;;;;;;;5035549;28;40745;-78
2021/06/02 14:25:09;;;;;;;2.20;1.60;;;;;;;;;;5031608;28;38989;-78
2021/06/02 14:27:35;;;;;;;4.57;1.80;;;;;;;;;;5063626;28;37814;-79
2021/06/02 14:30:02;;;;;;;2.08;1.60;;;;;;;;;;5059560;28;39131;-79
2021/06/02 14:32:28;;;;;;;3.58;1.40;;;;;;;;;;5064571;27;37006;-79
2021/06/02 14:34:54;;;;;;;4.63;1.85;;;;;;;;;;5055534;28;37047;-78
2021/06/02 14:37:21;;;;;;;6.90;2.13;;;;;;;;;;5045193;27;38119;-79
2021/06/02 14:39:47;;;;;;;4.43;1.77;;;;;;;;;;5063362;28;39577;-78
2021/06/02 14:42:14;;;;;;;2.72;1.60;;;;;;;;;;5059076;28;39965;-80
2021/06/02 14:44:40;;;;;;;2.33;1.60;;;;;;;;;;5054310;28;38501;-80
2021/06/02 14:47:06;;;;;;;2.67;1.63;;;;;;;;;;5052439;28;37661;-80
2021/06/02 14:49:33;;;;;;;2.03;1.70;;;;;;;;;;5050959;28;40311;-78
2021/06/02 14:52:00;;;;;;;4.72;1.75;;;;;;;;;;5057062;27;37986;-78
2021/06/02 14:54:27;;;;;;;4.60;1.73;;;;;;;;;;5048883;28;39172;-79
2021/06/02 14:56:54;;;;;;;2.13;1.35;;;;;;;;;;5056166;28;35578;-78
2021/06/02 14:59:20;;;;;;;5.47;1.83;;;;;;;;;;5051089;27;38431;-78
2021/06/02 15:01:47;;;;;;;5.10;1.48;;;;;;;;;;5061720;27;39930;-79